Terminal Aerodrome Forecast
Issued by NWS Detroit/Pontiac, MI

Home | Current Version | Previous Version | Text Only | Print | Product List | Glossary On
Versions: 1 2 3 4 5 6 7 8 9 10 11 12 13 14 15 16 17 18 19 20 21
201
FTUS43 KDTX 290521
TAFFNT
TAF
KFNT 290521Z 2906/3006 03005KT P6SM SKC
     FM291400 04008KT P6SM FEW028 SCT200
     FM292000 05008KT P6SM OVC150
     FM300200 04006KT P6SM OVC100=

USA.gov is the U.S. government's official web portal to all federal, state and local government web resources and services.